Shinkomaru No.8 — JK5142 — position and weather

sailwx.info

Track history (hours):
 
Tides and Currents Weather Stations Pressure Air Temp Water Temp Dewpoint Dewpoint Depression Visibility Wind Speed Wind Dir Waves Ship Positions

Shinkomaru No.8

Last reported at 2016-Sep-18 02:29 UTC. Time now 2016-Sep-28 22:15 UTC.
Position N 34°14' E 135°07'.
Warning: this ship's position is 10 days out of date.

Length 61 m; draft 4.2 m.

Type: Tanker. MMSI: 431400035.

Date/timePositionNaut miles runAvg speedWind from/ knotsBaromVisibWave heightAir tempDewpointWater temp
2016-Sep-18 02:29N 34°14' E 135°07'0 0.0
2016-Sep-18 01:32N 34°14' E 135°07'0 0.0
2016-Sep-18 00:31N 34°14' E 135°07'0 0.0
2016-Sep-17 22:29N 34°14' E 135°07'1 1.2
2016-Sep-17 21:33N 34°14' E 135°06'3 2.7
2016-Sep-17 20:29N 34°13' E 135°09'0 0.0
2016-Sep-17 12:25N 34°13' E 135°09'0 0.0
2016-Sep-17 10:19N 34°13' E 135°09'0 0.0
2016-Sep-17 09:06N 34°13' E 135°09'0 0.1
2016-Sep-17 08:22N 34°13' E 135°09'0 0.0
2016-Sep-17 07:09N 34°13' E 135°09'0 0.0
2016-Sep-17 05:07N 34°13' E 135°09'0 0.1
2016-Sep-17 04:26N 34°13' E 135°09'0 0.0
2016-Sep-17 00:34N 34°13' E 135°09'  
2016-Sep-08 09:33N 34°35' E 135°05'1110.9
2016-Sep-08 08:34N 34°24' E 135°04'9 9.5
2016-Sep-08 07:33N 34°15' E 135°05'2 1.9
2016-Sep-08 06:33N 34°14' E 135°07'0 0.0
2016-Sep-08 05:32N 34°14' E 135°07'0 0.0
2016-Sep-08 04:32N 34°14' E 135°07'0 0.0
2016-Sep-08 03:29N 34°14' E 135°07'0 0.0
2016-Sep-08 02:34N 34°14' E 135°07'  
Track history (hours):
 
Tides and Currents Weather Stations Pressure Air Temp Water Temp Dewpoint Dewpoint Depression Visibility Wind Speed Wind Dir Waves Ship Positions

Shinkomaru No.8

Last reported at 2016-Sep-18 02:29 UTC. Time now 2016-Sep-28 22:15 UTC.
Position N 34°14' E 135°07'.
Warning: this ship's position is 10 days out of date.

Length 61 m; draft 4.2 m.

Type: Tanker. MMSI: 431400035.

Date/timePositionNaut miles runAvg speedWind from/ knotsBaromVisibWave heightAir tempDewpointWater temp
2016-Sep-18 02:29N 34°14' E 135°07'0 0.0
2016-Sep-18 01:32N 34°14' E 135°07'0 0.0
2016-Sep-18 00:31N 34°14' E 135°07'0 0.0
2016-Sep-17 22:29N 34°14' E 135°07'1 1.2
2016-Sep-17 21:33N 34°14' E 135°06'3 2.7
2016-Sep-17 20:29N 34°13' E 135°09'0 0.0
2016-Sep-17 12:25N 34°13' E 135°09'0 0.0
2016-Sep-17 10:19N 34°13' E 135°09'0 0.0
2016-Sep-17 09:06N 34°13' E 135°09'0 0.1
2016-Sep-17 08:22N 34°13' E 135°09'0 0.0
2016-Sep-17 07:09N 34°13' E 135°09'0 0.0
2016-Sep-17 05:07N 34°13' E 135°09'0 0.1
2016-Sep-17 04:26N 34°13' E 135°09'0 0.0
2016-Sep-17 00:34N 34°13' E 135°09'  
2016-Sep-08 09:33N 34°35' E 135°05'1110.9
2016-Sep-08 08:34N 34°24' E 135°04'9 9.5
2016-Sep-08 07:33N 34°15' E 135°05'2 1.9
2016-Sep-08 06:33N 34°14' E 135°07'0 0.0
2016-Sep-08 05:32N 34°14' E 135°07'0 0.0
2016-Sep-08 04:32N 34°14' E 135°07'0 0.0
2016-Sep-08 03:29N 34°14' E 135°07'0 0.0
2016-Sep-08 02:34N 34°14' E 135°07'  

Dump ship's entire track history